Time;durP1;ratioP1;P1;durP2;ratioP2;P2;SDS_P1;SDS_P2;PMS_P1;PMS_P2;Temp;Humidity;BMP_temperature;BMP_pressure;BME280_temperature;BME280_humidity;BME280_pressure;Samples;Min_cycle;Max_cycle;Signal;HPM_P1;HPM_P2
2022/05/23 00:02:08;;;;;;;4.38;1.77;;;;;;;15.72;66.58;94914.09;4995328;28;20199;-77
2022/05/23 00:04:33;;;;;;;2.90;1.75;;;;;;;15.75;65.94;94916.31;4994967;28;20273;-77
2022/05/23 00:06:59;;;;;;;2.22;1.75;;;;;;;15.73;66.13;94913.09;4995244;28;20234;-77
2022/05/23 00:09:25;;;;;;;1.83;1.70;;;;;;;15.67;65.86;94913.88;5008846;28;20196;-77
2022/05/23 00:11:51;;;;;;;2.85;1.60;;;;;;;15.63;65.84;94910.00;4991336;28;20186;-76
2022/05/23 00:14:16;;;;;;;2.13;1.92;;;;;;;15.68;65.51;94897.16;4990504;28;20172;-77
2022/05/23 00:16:45;;;;;;;3.67;1.85;;;;;;;15.71;65.41;94881.88;4992426;28;20209;-77
2022/05/23 00:19:11;;;;;;;2.25;1.50;;;;;;;15.74;65.49;94876.25;4975125;28;20187;-76
2022/05/23 00:21:40;;;;;;;2.58;2.00;;;;;;;15.67;65.58;94864.16;4974867;28;20199;-77
2022/05/23 00:24:06;;;;;;;1.85;1.75;;;;;;;15.66;65.50;94865.94;4974466;28;20225;-77
2022/05/23 00:26:32;;;;;;;1.80;1.70;;;;;;;15.55;66.08;94867.28;4990848;28;20570;-77
2022/05/23 00:28:57;;;;;;;2.40;1.75;;;;;;;15.62;65.66;94859.47;4990797;28;20265;-77
2022/05/23 00:31:22;;;;;;;3.25;1.50;;;;;;;15.64;65.66;94844.41;4991523;28;20191;-77
2022/05/23 00:36:33;;;;;;;2.05;1.83;;;;;;;15.53;66.04;94839.69;4992223;28;20291;-76
2022/05/23 00:38:58;;;;;;;2.38;1.60;;;;;;;15.54;65.84;94838.69;4974277;28;20203;-76
2022/05/23 00:44:19;;;;;;;2.67;2.00;;;;;;;15.58;65.36;94845.97;4991103;28;20195;-76
2022/05/23 00:47:17;;;;;;;3.63;1.57;;;;;;;15.58;64.90;94832.88;4989449;28;20195;-76
2022/05/23 00:49:43;;;;;;;3.87;1.70;;;;;;;15.55;65.05;94835.09;4989244;28;20199;-77
2022/05/23 00:52:11;;;;;;;2.72;1.50;;;;;;;15.64;64.61;94827.91;4990986;28;20553;-77
2022/05/23 00:54:42;;;;;;;2.08;1.70;;;;;;;15.65;64.67;94827.69;5010600;28;20186;-77
2022/05/23 00:57:12;;;;;;;1.98;1.65;;;;;;;15.64;64.54;94823.47;5022920;28;20202;-77
2022/05/23 00:59:38;;;;;;;1.75;1.33;;;;;;;15.71;64.06;94826.09;5001172;28;20191;-75
2022/05/23 01:02:04;;;;;;;2.42;1.95;;;;;;;15.59;64.46;94808.31;5027998;28;20204;-76
2022/05/23 01:04:30;;;;;;;4.00;1.80;;;;;;;15.65;63.87;94798.91;5012099;28;20545;-77
2022/05/23 01:06:56;;;;;;;2.77;1.80;;;;;;;15.59;64.21;94789.19;4991509;28;20199;-77
2022/05/23 01:09:25;;;;;;;2.97;1.35;;;;;;;15.58;63.97;94787.59;4991424;28;20270;-77
2022/05/23 01:11:52;;;;;;;3.50;1.73;;;;;;;15.52;63.84;94794.41;4991218;28;20567;-77
2022/05/23 01:14:17;;;;;;;3.05;1.73;;;;;;;15.50;63.33;94779.91;4990377;28;20274;-77
2022/05/23 01:16:42;;;;;;;1.70;1.50;;;;;;;15.51;63.54;94777.09;4990335;28;20230;-77
2022/05/23 01:19:08;;;;;;;2.10;1.50;;;;;;;15.54;63.36;94778.50;4990752;28;20184;-77
2022/05/23 01:21:57;;;;;;;2.88;1.70;;;;;;;15.54;63.51;94774.06;4990407;28;20184;-76
2022/05/23 01:24:31;;;;;;;2.13;1.63;;;;;;;15.49;63.58;94767.81;4990119;28;20290;-77
2022/05/23 01:26:58;;;;;;;2.17;1.63;;;;;;;15.44;63.98;94771.00;5023509;28;20238;-77
2022/05/23 01:29:23;;;;;;;2.67;1.85;;;;;;;15.46;63.68;94771.66;4990680;28;20184;-77
2022/05/23 01:31:48;;;;;;;2.42;1.42;;;;;;;15.50;63.28;94770.25;4989836;28;20840;-77
2022/05/23 01:34:13;;;;;;;1.60;1.50;;;;;;;15.51;63.29;94778.91;4990393;28;20172;-77
2022/05/23 01:36:39;;;;;;;2.70;1.40;;;;;;;15.54;62.89;94774.06;4991890;28;20199;-77
2022/05/23 01:39:04;;;;;;;1.90;1.60;;;;;;;15.49;63.34;94767.81;4990973;28;20187;-77
2022/05/23 01:41:29;;;;;;;3.28;1.55;;;;;;;15.48;63.73;94777.47;4990890;28;20250;-77
2022/05/23 01:43:55;;;;;;;2.50;1.70;;;;;;;15.46;63.78;94771.66;4991400;28;20273;-77
2022/05/23 01:46:20;;;;;;;1.95;1.70;;;;;;;15.45;64.08;94770.00;4990465;28;20207;-77
2022/05/23 01:48:46;;;;;;;4.57;1.98;;;;;;;15.44;64.14;94765.78;4974492;28;20246;-76
2022/05/23 01:51:11;;;;;;;2.72;1.65;;;;;;;15.50;63.95;94757.16;4990389;28;20571;-77
2022/05/23 01:53:37;;;;;;;2.72;1.45;;;;;;;15.49;63.55;94755.56;4990145;28;20242;-77
2022/05/23 01:56:06;;;;;;;2.60;1.50;;;;;;;15.46;63.49;94742.88;4990957;28;20253;-76
2022/05/23 02:01:17;;;;;;;1.90;1.70;;;;;;;15.47;62.41;94738.44;4993997;28;20621;-76
2022/05/23 02:03:44;;;;;;;1.90;1.67;;;;;;;15.49;62.58;94742.47;4992740;28;20236;-75
2022/05/23 02:06:09;;;;;;;2.23;1.50;;;;;;;15.55;62.43;94746.13;4993155;28;20572;-76
2022/05/23 02:08:35;;;;;;;1.80;1.70;;;;;;;15.50;62.41;94744.06;4993153;28;20180;-76
2022/05/23 02:11:00;;;;;;;2.17;1.60;;;;;;;15.58;62.10;94740.47;4993068;28;20191;-77
2022/05/23 02:13:25;;;;;;;2.10;1.60;;;;;;;15.55;61.70;94733.84;4992949;28;20208;-77
2022/05/23 02:15:51;;;;;;;1.73;1.63;;;;;;;15.61;61.33;94723.59;4992583;28;20203;-76
2022/05/23 02:18:16;;;;;;;2.03;1.80;;;;;;;15.66;61.07;94726.44;4992848;28;20184;-76
2022/05/23 02:20:41;;;;;;;4.38;1.58;;;;;;;15.71;60.59;94722.19;4994206;28;20184;-77
2022/05/23 02:23:07;;;;;;;3.43;1.70;;;;;;;15.75;60.50;94710.34;4993279;28;20242;-76
2022/05/23 02:25:32;;;;;;;2.70;1.47;;;;;;;15.77;60.18;94710.13;4992361;28;20266;-75
2022/05/23 02:27:57;;;;;;;1.53;1.20;;;;;;;15.79;60.06;94710.75;4992773;28;20552;-76
2022/05/23 02:30:23;;;;;;;2.77;1.30;;;;;;;15.85;59.56;94710.75;4992998;28;20620;-76
2022/05/23 02:32:49;;;;;;;2.13;1.48;;;;;;;15.89;59.38;94703.28;4993023;28;20199;-77
2022/05/23 02:35:16;;;;;;;5.20;1.45;;;;;;;15.93;59.37;94691.44;4992594;28;20253;-77
2022/05/23 02:37:42;;;;;;;2.28;1.50;;;;;;;15.93;59.49;94686.19;4992866;28;20199;-77
2022/05/23 02:40:08;;;;;;;2.97;1.83;;;;;;;15.91;59.09;94680.34;4993218;28;20544;-76
2022/05/23 02:42:34;;;;;;;2.77;1.30;;;;;;;16.00;58.77;94675.72;4992941;28;20690;-77
2022/05/23 02:44:59;;;;;;;2.80;1.60;;;;;;;15.99;58.50;94668.84;4992574;28;20186;-77
2022/05/23 02:47:24;;;;;;;1.60;1.50;;;;;;;16.00;58.66;94662.63;4992667;28;20218;-77
2022/05/23 02:49:50;;;;;;;2.08;1.50;;;;;;;16.02;58.59;94661.41;4992894;28;20242;-77
2022/05/23 02:52:15;;;;;;;2.70;1.70;;;;;;;15.92;59.24;94658.41;4992660;28;20191;-77
2022/05/23 02:54:40;;;;;;;2.92;1.70;;;;;;;15.94;58.99;94658.19;4992276;28;20184;-77
2022/05/23 02:57:06;;;;;;;3.87;1.63;;;;;;;15.79;60.09;94653.16;4992333;28;20196;-76
2022/05/23 02:59:31;;;;;;;1.90;1.40;;;;;;;15.87;59.50;94650.31;4992224;28;20585;-76
2022/05/23 03:04:40;;;;;;;2.45;1.70;;;;;;;15.90;59.54;94649.13;4991752;28;20179;-76
2022/05/23 03:07:05;;;;;;;2.75;1.58;;;;;;;15.88;59.77;94649.31;4991830;28;20227;-76
2022/05/23 03:09:32;;;;;;;1.60;1.40;;;;;;;15.80;59.83;94652.94;4991137;28;20186;-76
2022/05/23 03:11:59;;;;;;;3.10;1.70;;;;;;;15.90;59.41;94649.91;4993091;28;20665;-77
2022/05/23 03:14:25;;;;;;;2.75;1.65;;;;;;;15.94;59.45;94642.47;4991383;28;20330;-75
2022/05/23 03:16:51;;;;;;;4.47;1.60;;;;;;;15.90;59.57;94630.78;4975756;28;20202;-76
2022/05/23 03:19:16;;;;;;;3.22;1.60;;;;;;;15.91;59.35;94642.91;4991878;28;20176;-77
2022/05/23 03:27:10;;;;;;;2.10;1.43;;;;;;;15.97;59.18;94658.56;4991964;28;20222;-76
2022/05/23 03:29:35;;;;;;;2.80;1.50;;;;;;;15.98;58.95;94647.09;4992143;28;20680;-77
2022/05/23 03:32:00;;;;;;;2.90;1.60;;;;;;;16.00;58.87;94655.56;4992048;28;20184;-77
2022/05/23 03:34:25;;;;;;;2.23;2.03;;;;;;;16.02;58.47;94668.47;4991367;28;20186;-77
2022/05/23 03:36:51;;;;;;;1.50;1.38;;;;;;;16.02;58.21;94698.06;4993252;28;20565;-76
2022/05/23 03:39:16;;;;;;;3.00;1.63;;;;;;;16.03;58.52;94731.09;4992085;28;20191;-76
2022/05/23 03:41:42;;;;;;;1.88;1.35;;;;;;;16.02;58.70;94750.44;4991953;28;20188;-76
2022/05/23 03:44:08;;;;;;;3.97;1.50;;;;;;;16.06;58.78;94798.78;4991202;28;20211;-76
2022/05/23 03:46:34;;;;;;;2.90;1.50;;;;;;;16.08;58.93;94861.47;4992204;28;20208;-76
2022/05/23 03:48:59;;;;;;;1.67;1.50;;;;;;;16.11;58.77;94848.78;5008270;28;20188;-77
2022/05/23 03:51:24;;;;;;;1.95;1.38;;;;;;;16.12;58.89;94850.38;4992177;28;20350;-77
2022/05/23 03:53:50;;;;;;;2.53;1.65;;;;;;;16.13;58.58;94864.28;4995554;28;20210;-78
2022/05/23 03:56:15;;;;;;;4.35;1.48;;;;;;;16.13;59.45;94854.59;5016422;28;20214;-76
2022/05/23 03:58:40;;;;;;;2.47;1.60;;;;;;;16.20;61.03;94880.03;5034794;28;20174;-77
2022/05/23 04:01:12;;;;;;;3.28;1.70;;;;;;;16.07;63.45;94899.91;5037048;28;20175;-77
2022/05/23 04:03:37;;;;;;;2.20;1.60;;;;;;;15.93;65.66;94906.13;5014692;28;20206;-77
2022/05/23 04:06:03;;;;;;;3.92;1.80;;;;;;;15.71;67.81;94894.94;5011028;28;20214;-75
2022/05/23 04:08:28;;;;;;;2.75;1.60;;;;;;;15.75;68.32;94898.81;4996427;28;20179;-76
2022/05/23 04:10:53;;;;;;;6.20;2.00;;;;;;;15.66;71.42;94901.78;4995929;28;20194;-77
2022/05/23 04:13:19;;;;;;;4.75;1.60;;;;;;;15.55;73.07;94903.13;4993029;28;20178;-78
2022/05/23 04:15:44;;;;;;;4.20;1.85;;;;;;;15.49;74.58;94909.94;5003695;28;20222;-78
2022/05/23 04:18:09;;;;;;;5.95;2.30;;;;;;;15.29;78.03;94914.25;4990576;28;20200;-78
2022/05/23 04:20:35;;;;;;;2.70;2.20;;;;;;;15.21;80.80;94917.00;4994908;28;20257;-78
2022/05/23 04:23:00;;;;;;;2.80;2.10;;;;;;;15.03;82.85;94922.72;4998275;28;20221;-79
2022/05/23 04:25:26;;;;;;;3.93;2.27;;;;;;;15.04;83.89;94920.91;5014502;28;20190;-79
2022/05/23 04:27:51;;;;;;;3.27;2.80;;;;;;;14.99;85.28;94905.78;5033349;28;20224;-79
2022/05/23 04:30:17;;;;;;;6.03;2.50;;;;;;;14.96;85.85;94899.13;5032250;28;20603;-78
2022/05/23 04:35:26;;;;;;;4.90;2.33;;;;;;;14.49;91.64;94873.63;5018486;28;20232;-78
2022/05/23 04:37:53;;;;;;;6.60;2.47;;;;;;;14.68;91.53;94859.13;5016759;28;20199;-77
2022/05/23 04:40:26;;;;;;;5.23;2.50;;;;;;;14.65;92.31;94843.78;5016961;28;20200;-78
2022/05/23 04:42:52;;;;;;;4.63;2.63;;;;;;;14.62;93.77;94805.00;4998660;28;20202;-77
2022/05/23 04:45:18;;;;;;;7.33;2.70;;;;;;;14.64;94.41;94822.09;5013699;28;20187;-77
2022/05/23 04:50:27;;;;;;;5.30;2.67;;;;;;;14.52;96.39;94828.03;5017770;28;20193;-79
2022/05/23 04:52:54;;;;;;;5.27;2.60;;;;;;;14.58;95.22;94840.34;5018812;28;20187;-79
2022/05/23 04:55:20;;;;;;;5.70;3.00;;;;;;;14.48;96.56;94856.31;5016015;28;20178;-78
2022/05/23 04:57:45;;;;;;;3.53;2.90;;;;;;;14.22;97.82;94848.22;5036298;28;20209;-79
2022/05/23 05:00:14;;;;;;;3.27;2.70;;;;;;;14.18;98.89;94837.34;5019704;28;20178;-77
2022/05/23 05:02:40;;;;;;;4.33;3.03;;;;;;;14.08;99.95;94814.16;5019280;28;20518;-79
2022/05/23 05:05:06;;;;;;;5.57;3.20;;;;;;;14.16;99.91;94774.06;5017171;28;20189;-79
2022/05/23 05:07:32;;;;;;;5.10;2.67;;;;;;;14.27;98.62;94715.28;5033869;28;20195;-79
2022/05/23 05:09:57;;;;;;;5.03;3.03;;;;;;;14.13;98.49;94703.94;4998196;28;20777;-80
2022/05/23 05:12:22;;;;;;;6.43;3.00;;;;;;;14.23;98.38;94701.81;4998067;28;20645;-78
2022/05/23 05:14:48;;;;;;;4.93;2.80;;;;;;;14.21;98.59;94701.19;5013663;28;20178;-80
2022/05/23 05:17:13;;;;;;;5.00;3.07;;;;;;;14.19;98.15;94713.63;4997651;28;20209;-79
2022/05/23 05:19:38;;;;;;;5.73;2.90;;;;;;;14.19;98.77;94713.63;4999124;28;20178;-78
2022/05/23 05:22:03;;;;;;;5.67;2.90;;;;;;;14.38;98.38;94709.53;5015339;28;20197;-77
2022/05/23 05:24:32;;;;;;;5.90;2.73;;;;;;;14.44;97.67;94711.38;5033781;28;20190;-79
2022/05/23 05:27:01;;;;;;;4.87;2.70;;;;;;;14.55;97.81;94713.50;5012198;28;20206;-80
2022/05/23 05:29:27;;;;;;;6.10;2.97;;;;;;;14.67;97.10;94701.50;4979264;28;20176;-80
2022/05/23 05:32:01;;;;;;;4.37;2.60;;;;;;;14.74;96.89;94698.91;5000531;28;20320;-80
2022/05/23 05:34:31;;;;;;;6.10;2.90;;;;;;;14.80;96.16;94685.06;5024503;28;20754;-80
2022/05/23 05:37:05;;;;;;;7.17;2.90;;;;;;;14.81;96.23;94652.72;5003439;28;20205;-79
2022/05/23 05:39:32;;;;;;;4.23;2.90;;;;;;;14.93;96.00;94634.66;5013078;28;20198;-82
2022/05/23 05:42:05;;;;;;;6.13;3.23;;;;;;;15.02;95.29;94600.31;5028454;28;20209;-78
2022/05/23 05:44:33;;;;;;;4.17;2.70;;;;;;;14.98;94.76;94593.84;5022921;28;20187;-79
2022/05/23 05:47:01;;;;;;;5.73;3.10;;;;;;;15.02;95.17;94610.78;5024787;28;20207;-79
2022/05/23 05:49:28;;;;;;;4.87;2.67;;;;;;;15.07;95.21;94620.63;5025222;28;20185;-80
2022/05/23 05:51:56;;;;;;;6.13;3.40;;;;;;;15.15;94.75;94630.09;5019845;28;20561;-78
2022/05/23 05:54:24;;;;;;;5.03;3.10;;;;;;;15.16;94.96;94640.34;5002924;28;20206;-79
2022/05/23 05:56:50;;;;;;;5.93;3.20;;;;;;;15.18;94.61;94630.50;5029142;28;20198;-79
2022/05/23 05:59:17;;;;;;;3.87;3.07;;;;;;;15.16;94.88;94631.72;5021129;28;20616;-78
2022/05/23 06:01:42;;;;;;;5.30;2.93;;;;;;;15.19;94.69;94626.06;5004525;28;20550;-80
2022/05/23 06:04:08;;;;;;;4.13;2.87;;;;;;;15.21;95.33;94624.09;5022243;28;20274;-78
2022/05/23 06:12:02;;;;;;;3.77;2.93;;;;;;;15.22;96.14;94602.16;5041844;28;20255;-80
2022/05/23 06:14:28;;;;;;;4.70;3.10;;;;;;;15.13;96.35;94596.31;5042438;28;20250;-79
2022/05/23 06:16:53;;;;;;;5.70;3.40;;;;;;;15.29;95.64;94595.94;5058001;28;20233;-79
2022/05/23 06:19:20;;;;;;;5.57;3.20;;;;;;;15.22;95.29;94586.47;5029060;28;20186;-79
2022/05/23 06:21:45;;;;;;;6.20;3.20;;;;;;;15.22;94.72;94570.78;5018011;28;20520;-79
2022/05/23 06:24:12;;;;;;;3.87;2.90;;;;;;;15.33;94.34;94572.78;5026466;28;20213;-80
2022/05/23 06:26:37;;;;;;;5.87;3.10;;;;;;;15.48;93.75;94588.31;5019001;28;20206;-78
2022/05/23 06:29:02;;;;;;;4.87;2.50;;;;;;;15.42;93.88;94595.13;5018602;28;20653;-78
2022/05/23 06:31:28;;;;;;;3.20;2.80;;;;;;;15.67;91.66;94610.28;4999954;28;20233;-79
2022/05/23 06:33:53;;;;;;;3.73;3.03;;;;;;;15.86;90.52;94617.31;5007765;28;20178;-78
2022/05/23 06:36:18;;;;;;;2.83;2.53;;;;;;;16.22;89.10;94621.28;5018140;28;20251;-78
2022/05/23 06:38:44;;;;;;;5.43;2.90;;;;;;;16.46;88.25;94620.63;5019753;28;20181;-79
2022/05/23 06:41:10;;;;;;;5.03;2.83;;;;;;;16.84;86.30;94610.22;5015579;28;20583;-79
2022/05/23 06:43:38;;;;;;;4.38;2.58;;;;;;;16.86;85.85;94602.16;4999279;28;20202;-78
2022/05/23 06:46:03;;;;;;;4.13;2.75;;;;;;;17.02;84.43;94600.88;5000428;28;20195;-79
2022/05/23 06:48:30;;;;;;;5.53;2.83;;;;;;;16.90;84.52;94598.09;5001044;28;20170;-79
2022/05/23 06:50:56;;;;;;;4.47;2.80;;;;;;;17.25;81.92;94580.16;5000926;28;20201;-79
2022/05/23 06:53:23;;;;;;;4.88;2.90;;;;;;;17.72;79.29;94578.81;5019893;28;20647;-78
2022/05/23 06:55:49;;;;;;;4.22;2.60;;;;;;;17.98;76.82;94577.78;5017297;28;20647;-78
2022/05/23 06:58:15;;;;;;;4.43;2.40;;;;;;;17.94;77.68;94573.19;5036144;28;20182;-79
2022/05/23 07:00:41;;;;;;;4.70;3.00;;;;;;;17.94;76.77;94583.69;5019961;28;20181;-80
2022/05/23 07:03:06;;;;;;;3.92;2.65;;;;;;;17.63;77.64;94584.50;5009792;28;20202;-80
2022/05/23 07:13:45;;;;;;;6.05;2.72;;;;;;;18.39;75.16;94598.19;5024417;28;20206;-79
2022/05/23 07:16:11;;;;;;;3.53;2.30;;;;;;;18.26;75.41;94605.38;5016896;28;20691;-80
2022/05/23 07:18:38;;;;;;;3.00;2.40;;;;;;;17.79;77.36;94595.31;5017537;28;20205;-80
2022/05/23 07:21:06;;;;;;;5.30;2.95;;;;;;;18.83;73.89;94590.22;5022690;28;20220;-79
2022/05/23 07:23:31;;;;;;;3.25;2.92;;;;;;;19.10;71.92;94588.84;5024127;28;20210;-80
2022/05/23 07:25:56;;;;;;;3.05;2.38;;;;;;;19.43;70.51;94595.47;5018283;28;20688;-83
2022/05/23 07:28:22;;;;;;;3.45;2.53;;;;;;;19.11;71.64;94600.19;5004379;28;20206;-80
2022/05/23 07:30:47;;;;;;;3.97;2.83;;;;;;;18.55;73.36;94593.34;5002508;28;20182;-79
2022/05/23 07:33:12;;;;;;;4.50;2.70;;;;;;;18.31;74.73;94581.91;5018887;28;20193;-81
2022/05/23 07:35:38;;;;;;;3.08;2.67;;;;;;;18.32;74.93;94589.56;5016678;28;20205;-79
2022/05/23 07:38:03;;;;;;;4.20;2.70;;;;;;;18.50;74.42;94583.50;5018707;28;20177;-79
2022/05/23 07:40:28;;;;;;;3.35;2.85;;;;;;;17.99;75.28;94579.38;5034371;28;20255;-79
2022/05/23 07:42:54;;;;;;;3.50;2.65;;;;;;;18.29;75.67;94582.13;5018590;28;20202;-78
2022/05/23 07:45:19;;;;;;;4.45;3.10;;;;;;;17.94;77.13;94595.00;5017675;28;20216;-79
2022/05/23 07:47:45;;;;;;;3.28;2.95;;;;;;;18.40;76.18;94593.72;5017242;28;20296;-79
2022/05/23 07:50:11;;;;;;;6.63;2.88;;;;;;;18.71;74.58;94590.16;5035606;28;20253;-79
2022/05/23 07:52:37;;;;;;;4.43;2.60;;;;;;;18.45;76.29;94596.50;5018950;28;20651;-79
2022/05/23 08:00:33;;;;;;;4.93;2.95;;;;;;;18.55;75.23;94594.19;5018888;28;20265;-79
2022/05/23 08:03:05;;;;;;;6.85;3.00;;;;;;;18.86;73.60;94590.56;5012326;28;20606;-79
2022/05/23 08:05:31;;;;;;;3.50;2.90;;;;;;;19.21;72.83;94590.72;4998034;28;20185;-79
2022/05/23 08:07:57;;;;;;;4.35;2.90;;;;;;;19.30;72.18;94582.50;5041470;28;20280;-80
2022/05/23 08:10:24;;;;;;;3.67;2.63;;;;;;;18.86;74.67;94582.69;5018183;28;20243;-79
2022/05/23 08:12:53;;;;;;;3.25;2.80;;;;;;;19.37;72.95;94570.06;5026374;28;20588;-79
2022/05/23 08:15:19;;;;;;;5.10;2.75;;;;;;;19.19;73.24;94561.19;5027642;28;20643;-79
2022/05/23 08:17:45;;;;;;;3.95;2.97;;;;;;;19.29;72.97;94555.38;5018859;28;20201;-79
2022/05/23 08:20:11;;;;;;;4.35;2.85;;;;;;;19.45;71.49;94549.47;5016133;28;20225;-79
2022/05/23 08:22:36;;;;;;;4.35;3.22;;;;;;;19.28;72.44;94537.19;5014714;28;20675;-79
2022/05/23 08:25:01;;;;;;;3.42;2.90;;;;;;;19.14;73.69;94532.09;5048124;28;20190;-79
2022/05/23 08:27:27;;;;;;;4.47;3.22;;;;;;;19.41;72.06;94527.25;5032538;28;20205;-79
2022/05/23 08:29:53;;;;;;;2.85;2.55;;;;;;;19.72;70.60;94528.00;4999967;28;20182;-80
2022/05/23 08:32:19;;;;;;;6.53;2.63;;;;;;;20.02;68.18;94523.41;5000020;28;20187;-80
2022/05/23 08:34:45;;;;;;;4.25;2.45;;;;;;;20.16;68.03;94518.69;5012316;28;20558;-80
2022/05/23 08:37:10;;;;;;;3.00;2.55;;;;;;;19.82;66.79;94522.97;5013973;28;20198;-80
2022/05/23 08:39:36;;;;;;;3.03;2.10;;;;;;;20.23;65.73;94534.38;5018416;28;20178;-80
2022/05/23 08:42:43;;;;;;;2.75;2.10;;;;;;;20.19;66.66;94531.41;5000300;28;20686;-79
2022/05/23 08:45:21;;;;;;;4.38;2.47;;;;;;;20.37;67.36;94522.53;5012970;28;20233;-80
2022/05/23 08:47:55;;;;;;;3.38;2.65;;;;;;;20.57;64.18;94525.59;5007403;28;20255;-79
2022/05/23 08:50:28;;;;;;;5.22;2.67;;;;;;;20.37;64.82;94531.25;5048381;28;20657;-80
2022/05/23 08:53:01;;;;;;;4.82;2.30;;;;;;;20.51;65.23;94536.31;5035505;28;20277;-78
2022/05/23 08:55:33;;;;;;;3.75;2.42;;;;;;;20.56;65.16;94539.84;5010988;28;20181;-79
2022/05/23 08:58:03;;;;;;;3.88;2.63;;;;;;;20.21;66.74;94546.97;5015131;28;20182;-78
2022/05/23 09:00:31;;;;;;;5.72;2.60;;;;;;;19.94;68.14;94550.09;5019560;28;20177;-79
2022/05/23 09:03:05;;;;;;;2.80;2.08;;;;;;;19.91;67.90;94547.94;5054919;28;20205;-77
2022/05/23 09:05:35;;;;;;;5.85;2.70;;;;;;;19.50;69.17;94544.31;5002509;28;20176;-78
2022/05/23 09:08:22;;;;;;;4.22;2.50;;;;;;;19.96;67.05;94534.06;5038284;28;20155;-78
2022/05/23 09:10:57;;;;;;;6.50;2.72;;;;;;;19.65;68.87;94540.47;5044162;28;20249;-78
2022/05/23 09:13:26;;;;;;;5.40;2.75;;;;;;;20.25;66.61;94537.59;5026637;28;20247;-79
2022/05/23 09:15:53;;;;;;;6.38;2.70;;;;;;;19.98;67.25;94545.19;5027212;28;20155;-78
2022/05/23 09:18:23;;;;;;;3.15;2.40;;;;;;;19.94;66.98;94534.28;5043115;28;20187;-79
2022/05/23 09:20:53;;;;;;;3.42;2.60;;;;;;;19.53;69.40;94543.88;5034676;28;20177;-79
2022/05/23 09:23:30;;;;;;;4.03;2.90;;;;;;;19.87;69.30;94545.97;5065000;28;20210;-79
2022/05/23 09:25:56;;;;;;;4.13;2.75;;;;;;;19.77;70.21;94531.53;5017964;28;20230;-80
2022/05/23 09:28:27;;;;;;;5.22;2.88;;;;;;;19.76;70.28;94527.31;5009972;28;20233;-80
2022/05/23 09:31:10;;;;;;;4.90;3.08;;;;;;;19.47;72.19;94544.78;5053184;28;20183;-81
2022/05/23 09:33:49;;;;;;;3.15;2.80;;;;;;;19.51;72.53;94543.28;5005251;28;20182;-80
2022/05/23 09:36:18;;;;;;;4.68;2.90;;;;;;;19.43;73.04;94537.53;5015521;28;20763;-80
2022/05/23 09:38:55;;;;;;;4.40;2.70;;;;;;;18.92;74.17;94544.97;5006109;28;20244;-80
2022/05/23 09:50:09;;;;;;;3.85;3.00;;;;;;;20.61;72.71;94579.50;5044678;28;20201;-77
2022/05/23 09:52:42;;;;;;;6.13;3.10;;;;;;;20.18;71.62;94579.88;5042695;28;20231;-77
2022/05/23 09:55:09;;;;;;;3.75;3.15;;;;;;;20.18;72.70;94589.63;5042422;28;20222;-77
2022/05/23 09:57:40;;;;;;;5.40;2.78;;;;;;;20.30;72.59;94585.13;5034918;28;20198;-77
2022/05/23 10:00:07;;;;;;;4.10;2.80;;;;;;;20.18;73.68;94592.25;5046870;28;20194;-81
2022/05/23 10:02:41;;;;;;;3.78;2.88;;;;;;;20.25;73.61;94596.41;5004124;28;20206;-80
2022/05/23 10:05:25;;;;;;;7.40;2.78;;;;;;;20.28;73.22;94590.66;5001750;28;20199;-78
2022/05/23 10:07:55;;;;;;;3.38;2.70;;;;;;;20.25;71.55;94590.31;5012943;28;20222;-80
2022/05/23 10:10:27;;;;;;;3.17;2.53;;;;;;;20.26;70.19;94582.16;5002139;28;20182;-79
2022/05/23 10:13:10;;;;;;;3.58;2.80;;;;;;;20.17;70.67;94593.31;5002314;28;20647;-79
2022/05/23 10:15:44;;;;;;;4.72;2.80;;;;;;;20.20;72.82;94592.81;5035810;28;20186;-79
2022/05/23 10:18:18;;;;;;;3.90;2.78;;;;;;;20.09;71.49;94582.06;5019097;28;20182;-80
2022/05/23 10:20:43;;;;;;;4.10;2.90;;;;;;;20.28;71.92;94581.94;5002544;28;20251;-79
2022/05/23 10:23:17;;;;;;;5.97;2.92;;;;;;;20.55;71.70;94585.72;5019667;28;20716;-79
2022/05/23 10:26:05;;;;;;;3.15;2.53;;;;;;;20.55;70.88;94595.47;5017275;28;20204;-79
2022/05/23 10:29:03;;;;;;;3.15;2.72;;;;;;;21.10;69.28;94601.03;5046771;28;20217;-79
2022/05/23 10:31:41;;;;;;;8.27;2.55;;;;;;;21.66;67.18;94596.78;5002039;28;20206;-79
2022/05/23 10:34:21;;;;;;;4.03;2.47;;;;;;;21.28;68.80;94612.47;5001015;28;20224;-79
2022/05/23 10:36:49;;;;;;;4.60;2.83;;;;;;;21.43;68.55;94628.59;5016819;28;20590;-79
2022/05/23 10:42:10;;;;;;;3.17;2.70;;;;;;;21.32;69.55;94632.91;5026938;28;20212;-79
2022/05/23 10:45:07;;;;;;;5.20;3.00;;;;;;;21.13;70.78;94640.16;5016664;28;20693;-79
2022/05/23 10:48:06;;;;;;;3.40;2.70;;;;;;;20.69;71.84;94646.13;5001761;28;20298;-79
2022/05/23 10:50:44;;;;;;;3.80;2.95;;;;;;;20.54;72.53;94668.50;5019844;28;20201;-79
2022/05/23 10:53:37;;;;;;;7.25;3.05;;;;;;;20.04;77.46;94699.72;5009876;28;20177;-81
2022/05/23 10:56:10;;;;;;;6.75;2.75;;;;;;;19.97;79.78;94697.22;5042103;28;20241;-81
2022/05/23 10:58:47;;;;;;;5.10;3.33;;;;;;;19.86;82.46;94728.78;5012797;28;20655;-82
2022/05/23 11:01:23;;;;;;;4.65;3.00;;;;;;;19.30;81.84;94703.59;5043547;28;20178;-81
2022/05/23 11:03:58;;;;;;;5.18;2.95;;;;;;;19.00;84.78;94709.63;5005909;28;20208;-81
2022/05/23 11:06:34;;;;;;;5.78;3.17;;;;;;;18.96;85.82;94688.19;5052561;28;20205;-81
2022/05/23 11:09:37;;;;;;;5.72;3.42;;;;;;;18.85;88.68;94712.59;5025633;28;20177;-81
2022/05/23 11:12:14;;;;;;;6.75;3.25;;;;;;;18.68;89.37;94690.53;5056808;28;20189;-80
2022/05/23 11:15:03;;;;;;;4.85;2.80;;;;;;;18.67;86.64;94660.81;5025443;28;20169;-80
2022/05/23 11:17:38;;;;;;;4.80;3.00;;;;;;;18.57;87.21;94670.19;5007035;28;20234;-80
2022/05/23 11:20:32;;;;;;;6.60;3.10;;;;;;;18.72;86.51;94673.28;5022593;28;20212;-79
2022/05/23 11:23:02;;;;;;;4.13;2.92;;;;;;;18.81;87.31;94679.06;5025167;28;20202;-77
2022/05/23 11:25:44;;;;;;;5.28;3.00;;;;;;;18.73;86.75;94677.53;5038719;28;20209;-79
2022/05/23 11:34:12;;;;;;;4.40;2.90;;;;;;;18.57;88.66;94659.69;5007748;28;20183;-79
2022/05/23 11:39:49;;;;;;;5.43;2.75;;;;;;;18.54;89.17;94623.28;5048690;28;20185;-77
2022/05/23 11:42:27;;;;;;;5.63;3.13;;;;;;;18.41;90.95;94600.59;5022488;28;20221;-80
2022/05/23 11:44:57;;;;;;;6.53;3.03;;;;;;;18.36;91.96;94577.56;5056442;28;20259;-79
2022/05/23 11:47:25;;;;;;;5.50;3.13;;;;;;;18.24;92.26;94571.44;5028712;28;20198;-80
2022/05/23 11:49:59;;;;;;;5.38;3.85;;;;;;;18.13;94.21;94530.16;5058610;28;20176;-79
2022/05/23 11:52:52;;;;;;;6.25;4.15;;;;;;;18.08;95.76;94490.56;5027169;28;20659;-79
2022/05/23 11:55:53;;;;;;;6.80;4.47;;;;;;;17.91;96.57;94431.78;4998411;28;20209;-77
2022/05/23 11:58:40;;;;;;;4.88;4.30;;;;;;;17.78;97.69;94414.34;5023866;28;20182;-78
2022/05/23 12:01:12;;;;;;;6.07;4.25;;;;;;;17.79;98.23;94394.94;5027147;28;20182;-79
2022/05/23 12:04:00;;;;;;;5.50;4.55;;;;;;;17.79;98.94;94389.69;5034084;28;20195;-76
2022/05/23 12:06:28;;;;;;;6.38;4.38;;;;;;;17.80;98.97;94386.84;5034308;28;20191;-78
2022/05/23 12:09:02;;;;;;;6.00;5.05;;;;;;;17.81;99.18;94393.69;5051100;28;20179;-78
2022/05/23 12:11:32;;;;;;;4.22;3.70;;;;;;;17.83;98.87;94391.66;5035668;28;20182;-76
2022/05/23 12:14:16;;;;;;;6.10;4.15;;;;;;;17.79;97.94;94381.81;5000966;28;20273;-77
2022/05/23 12:16:48;;;;;;;5.72;3.90;;;;;;;17.78;97.93;94374.97;5018668;28;20213;-78
2022/05/23 12:19:32;;;;;;;4.63;4.15;;;;;;;17.80;97.31;94378.97;5021199;28;20277;-79
2022/05/23 12:22:20;;;;;;;8.65;4.30;;;;;;;17.91;97.61;94347.72;5001750;28;20585;-78
2022/05/23 12:25:08;;;;;;;8.18;5.47;;;;;;;17.70;98.94;94383.94;5026758;28;20186;-79
2022/05/23 12:27:37;;;;;;;5.78;3.80;;;;;;;17.76;98.44;94377.81;5038297;28;20199;-77
2022/05/23 12:30:20;;;;;;;7.25;4.70;;;;;;;17.93;98.12;94387.69;5004626;28;20200;-79
2022/05/23 12:32:57;;;;;;;6.63;4.00;;;;;;;18.03;97.61;94414.28;5038890;28;20230;-78
2022/05/23 12:35:58;;;;;;;6.65;3.63;;;;;;;18.28;97.60;94401.78;5041603;28;20182;-77
2022/05/23 12:38:45;;;;;;;4.80;3.63;;;;;;;18.63;96.27;94406.38;5004465;28;20559;-78
2022/05/23 12:41:40;;;;;;;6.25;3.80;;;;;;;18.64;95.17;94405.34;5022483;28;20270;-79
2022/05/23 12:44:30;;;;;;;6.53;3.92;;;;;;;18.82;92.13;94407.94;5016438;28;20238;-79
2022/05/23 12:47:11;;;;;;;5.60;3.35;;;;;;;19.20;89.34;94393.56;5005844;28;20271;-78
2022/05/23 12:49:52;;;;;;;3.30;2.97;;;;;;;19.46;86.58;94385.22;5004498;28;20179;-79